Shoei Maru No.55 — JL6485 — position and weather

sailwx.info

Track history (hours):
 
Tides and Currents Weather Stations Pressure Air Temp Water Temp Dewpoint Dewpoint Depression Visibility Wind Speed Wind Dir Waves Ship Positions

Shoei Maru No.55

Last reported at 2018-Jul-17 09:07 UTC. Time now 2018-Jul-17 13:38 UTC.
Position N 33°48' E 134°44'.

Length 72 m; draft 4.5 m.

Type: Cargo ship. MMSI: 431500583.

Date/timePositionNaut miles runAvg speedWind from/ knotsBaromVisibWave heightAir tempDewpointWater temp
2018-Jul-17 09:07N 33°48' E 134°44'312.2
2018-Jul-17 08:50N 33°51' E 134°46'911.5
2018-Jul-17 08:00N 33°59' E 134°52'611.7
2018-Jul-17 07:30N 34°04' E 134°55'612.5
2018-Jul-17 07:00N 34°10' E 134°59'612.3
2018-Jul-17 06:31N 34°15' E 135°02'713.1
2018-Jul-17 06:00N 34°21' E 135°06'612.1
2018-Jul-17 05:31N 34°26' E 135°11'611.4
2018-Jul-17 05:00N 34°29' E 135°17'4 7.7
2018-Jul-17 04:30N 34°28' E 135°21'0 0.0
2018-Jul-17 03:44N 34°28' E 135°21'0 0.0
2018-Jul-17 03:08N 34°28' E 135°21'0 0.0
2018-Jul-17 02:56N 34°28' E 135°21'0 0.0
2018-Jul-17 02:29N 34°28' E 135°21'0 0.0
2018-Jul-17 01:59N 34°28' E 135°21'0 0.1
2018-Jul-17 01:29N 34°28' E 135°21'0 0.1
2018-Jul-17 00:53N 34°28' E 135°21'0 0.0
2018-Jul-17 00:29N 34°28' E 135°21'0 0.0
2018-Jul-16 23:30N 34°28' E 135°21'2 2.0
2018-Jul-16 22:43N 34°29' E 135°20'0 0.0
2018-Jul-16 22:25N 34°29' E 135°20'0 0.0
2018-Jul-16 21:34N 34°29' E 135°20'0 0.0
2018-Jul-16 21:22N 34°29' E 135°20'0 0.0
2018-Jul-16 20:58N 34°29' E 135°20'0 0.0
2018-Jul-16 20:22N 34°29' E 135°20'0 0.0
2018-Jul-16 19:49N 34°29' E 135°20'0 0.0
2018-Jul-16 19:25N 34°29' E 135°20'0 0.0
2018-Jul-16 18:55N 34°29' E 135°20'0 0.0
2018-Jul-16 18:22N 34°29' E 135°20'0 0.0
2018-Jul-16 17:46N 34°29' E 135°20'0 0.1
2018-Jul-16 17:28N 34°29' E 135°20'0 0.1
2018-Jul-16 16:58N 34°29' E 135°20'0 0.0
2018-Jul-16 16:28N 34°29' E 135°20'0 0.0
2018-Jul-16 15:58N 34°29' E 135°20'0 0.0
2018-Jul-16 15:28N 34°29' E 135°20'0 0.0
2018-Jul-16 14:58N 34°29' E 135°20'0 0.0
2018-Jul-16 14:28N 34°29' E 135°20'0 0.0
2018-Jul-16 13:58N 34°29' E 135°20'0 0.0
2018-Jul-16 13:28N 34°29' E 135°20'0 0.0
2018-Jul-16 12:55N 34°29' E 135°20'1 1.5
2018-Jul-16 12:30N 34°29' E 135°19'611.0
2018-Jul-16 12:00N 34°28' E 135°13'611.8
2018-Jul-16 11:30N 34°23' E 135°08'611.7
2018-Jul-16 11:00N 34°18' E 135°04'612.3
2018-Jul-16 10:31N 34°12' E 135°03'611.9
2018-Jul-16 10:00N 34°06' E 135°03'611.7
2018-Jul-16 09:28N 33°60' E 135°02'208 9.4
2018-Jul-15 11:22N 34°48' E 139°08'12 9.4
2018-Jul-15 10:08N 34°55' E 139°18'5 7.8
2018-Jul-15 09:27N 34°58' E 139°24'4 7.6
2018-Jul-15 08:59N 34°60' E 139°28'4 8.8
2018-Jul-15 08:29N 35°02' E 139°32'510.1
2018-Jul-15 08:00N 35°05' E 139°37'511.0
2018-Jul-15 07:30N 35°08' E 139°43'510.5
2018-Jul-15 07:00N 35°12' E 139°46'4 8.9
2018-Jul-15 06:30N 35°17' E 139°45'5 9.6
2018-Jul-15 06:00N 35°21' E 139°42'5 9.9
2018-Jul-15 05:30N 35°26' E 139°43'4 7.5
2018-Jul-15 05:00N 35°30' E 139°43'0 0.1
2018-Jul-15 04:29N 35°30' E 139°43'0 0.0
2018-Jul-15 03:59N 35°30' E 139°43'0 0.0
2018-Jul-15 03:29N 35°30' E 139°43'0 0.0
2018-Jul-15 02:59N 35°30' E 139°43'0 0.0
2018-Jul-15 02:29N 35°30' E 139°43'0 0.0
2018-Jul-15 01:59N 35°30' E 139°43'0 0.0
2018-Jul-15 01:29N 35°30' E 139°43'0 0.0
2018-Jul-15 00:59N 35°30' E 139°43'0 0.0
2018-Jul-15 00:29N 35°30' E 139°43'0 0.0
2018-Jul-14 23:59N 35°30' E 139°43'0 0.0
2018-Jul-14 23:29N 35°30' E 139°43'0 0.2
2018-Jul-14 23:00N 35°30' E 139°43'3 6.8
2018-Jul-14 22:30N 35°26' E 139°42'3 6.2
2018-Jul-14 21:58N 35°29' E 139°39'0 0.0
2018-Jul-14 21:28N 35°29' E 139°39'0 0.0
2018-Jul-14 20:58N 35°29' E 139°39'0 0.0
2018-Jul-14 20:28N 35°29' E 139°39'0 0.0
2018-Jul-14 19:58N 35°29' E 139°39'0 0.0
2018-Jul-14 19:28N 35°29' E 139°39'0 0.0
2018-Jul-14 18:58N 35°29' E 139°39'0 0.0
2018-Jul-14 18:28N 35°29' E 139°39'0 0.0
2018-Jul-14 17:58N 35°29' E 139°39'0 0.0
2018-Jul-14 17:28N 35°29' E 139°39'0 0.0
2018-Jul-14 16:58N 35°29' E 139°39'0 0.0
2018-Jul-14 16:28N 35°29' E 139°39'0 0.0
2018-Jul-14 15:58N 35°29' E 139°39'0 0.0
2018-Jul-14 15:28N 35°29' E 139°39'0 0.0
2018-Jul-14 14:58N 35°29' E 139°39'0 0.0
2018-Jul-14 13:58N 35°29' E 139°39'0 0.0
2018-Jul-14 13:28N 35°29' E 139°39'0 0.0
2018-Jul-14 12:58N 35°29' E 139°39'0 0.0
2018-Jul-14 12:28N 35°29' E 139°39'0 0.0
2018-Jul-14 11:58N 35°29' E 139°39'0 0.0
2018-Jul-14 11:28N 35°29' E 139°39'0 0.0
2018-Jul-14 10:58N 35°29' E 139°39'0 0.0
2018-Jul-14 10:28N 35°29' E 139°39'0 0.0
2018-Jul-14 09:58N 35°29' E 139°39'0 0.0
2018-Jul-14 09:28N 35°29' E 139°39'0 0.0
2018-Jul-14 08:58N 35°29' E 139°39'0 0.0
2018-Jul-14 08:28N 35°29' E 139°39'0 0.0
2018-Jul-14 07:58N 35°29' E 139°39'0 0.0
2018-Jul-14 07:28N 35°29' E 139°39'0 0.2
2018-Jul-14 07:00N 35°29' E 139°39'5 9.6
2018-Jul-14 06:30N 35°27' E 139°45'611.8
2018-Jul-14 06:00N 35°32' E 139°49'4 0.5
2018-Jul-13 21:20N 35°35' E 139°46'0 0.0
2018-Jul-13 21:00N 35°35' E 139°46'4 7.5
2018-Jul-13 20:30N 35°33' E 139°50'2 4.0
2018-Jul-13 19:59N 35°31' E 139°50'0 0.0
2018-Jul-13 19:29N 35°31' E 139°50'0 0.0
2018-Jul-13 18:59N 35°31' E 139°50'0 0.0
2018-Jul-13 18:29N 35°31' E 139°50'0 0.0
2018-Jul-13 12:14N 35°31' E 139°50'0 0.3
2018-Jul-13 12:00N 35°31' E 139°50'5 9.7
2018-Jul-13 11:30N 35°26' E 139°48'510.4
2018-Jul-13 11:00N 35°22' E 139°45'5 9.3
2018-Jul-13 10:30N 35°17' E 139°46'510.2
2018-Jul-13 10:00N 35°12' E 139°47'611.3
2018-Jul-13 09:29N 35°07' E 139°44'611.4
2018-Jul-13 09:00N 35°02' E 139°39'612.1
2018-Jul-13 08:29N 34°58' E 139°34'612.9
2018-Jul-13 08:00N 34°55' E 139°28'234 4.7
2018-Jul-11 06:11N 33°59' E 134°52'311.3
2018-Jul-11 05:53N 34°02' E 134°54'411.5
2018-Jul-11 05:30N 34°06' E 134°56'613.0
2018-Jul-11 05:01N 34°12' E 134°60'612.4
2018-Jul-11 04:30N 34°17' E 135°04'612.1
2018-Jul-11 04:01N 34°22' E 135°07'612.4
2018-Jul-11 03:31N 34°27' E 135°12'611.8
2018-Jul-11 03:00N 34°29' E 135°19'2 0.2
2018-Jul-10 17:06N 34°28' E 135°21'0 0.2
2018-Jul-10 17:00N 34°28' E 135°21'3 7.0
2018-Jul-10 16:30N 34°29' E 135°17'510.5
2018-Jul-10 16:00N 34°26' E 135°11'510.4
2018-Jul-10 15:30N 34°22' E 135°07'510.2
2018-Jul-10 15:00N 34°18' E 135°04'5 9.8
2018-Jul-10 14:30N 34°13' E 135°03'510.5
2018-Jul-10 14:00N 34°08' E 135°03'610.6
2018-Jul-10 13:28N 34°02' E 135°03'208 9.2
2018-Jul-09 14:47N 34°48' E 139°08'410.0
2018-Jul-09 14:26N 34°51' E 139°11'10 8.9
2018-Jul-09 13:18N 34°57' E 139°21'3 7.9
2018-Jul-09 12:56N 34°58' E 139°24'4 8.8
2018-Jul-09 12:27N 35°00' E 139°28'4 9.4
2018-Jul-09 12:00N 35°02' E 139°32'611.1
2018-Jul-09 11:30N 35°05' E 139°38'611.7
2018-Jul-09 11:00N 35°09' E 139°44'510.7
2018-Jul-09 10:30N 35°14' E 139°46'510.8
2018-Jul-09 10:00N 35°19' E 139°43'510.7
2018-Jul-09 09:30N 35°24' E 139°42'5 9.8
2018-Jul-09 09:00N 35°29' E 139°42'1 2.0
2018-Jul-09 08:28N 35°30' E 139°43'0 0.0
2018-Jul-09 07:55N 35°30' E 139°43'0 0.0
2018-Jul-09 07:28N 35°30' E 139°43'0 0.0
2018-Jul-09 06:58N 35°30' E 139°43'0 0.0
2018-Jul-09 06:28N 35°30' E 139°43'0 0.0
2018-Jul-09 05:58N 35°30' E 139°43'0 0.0
2018-Jul-09 05:28N 35°30' E 139°43'0 0.0
2018-Jul-09 04:46N 35°30' E 139°43'0 0.0
2018-Jul-09 04:28N 35°30' E 139°43'0 0.0
2018-Jul-09 03:58N 35°30' E 139°43'2 4.8
2018-Jul-09 03:30N 35°31' E 139°46'4 7.1
2018-Jul-09 03:00N 35°32' E 139°50'3 6.7
2018-Jul-09 02:30N 35°35' E 139°47'1 0.0
2018-Jul-08 01:42N 35°35' E 139°46'0 1.6
2018-Jul-08 01:27N 35°35' E 139°47'4 8.5
2018-Jul-08 01:00N 35°32' E 139°50'611.2
2018-Jul-08 00:30N 35°26' E 139°47'510.9
2018-Jul-08 00:00N 35°21' E 139°45'5 9.9
2018-Jul-07 23:30N 35°16' E 139°46'5 9.9
2018-Jul-07 23:00N 35°11' E 139°46'510.3
2018-Jul-07 22:30N 35°07' E 139°43'510.6
2018-Jul-07 22:00N 35°03' E 139°40'612.1
2018-Jul-07 21:29N 34°58' E 139°34'713.3
2018-Jul-07 20:59N 34°55' E 139°27'  
Track history (hours):
 
Tides and Currents Weather Stations Pressure Air Temp Water Temp Dewpoint Dewpoint Depression Visibility Wind Speed Wind Dir Waves Ship Positions

Shoei Maru No.55

Last reported at 2018-Jul-17 09:07 UTC. Time now 2018-Jul-17 13:38 UTC.
Position N 33°48' E 134°44'.

Length 72 m; draft 4.5 m.

Type: Cargo ship. MMSI: 431500583.

Date/timePositionNaut miles runAvg speedWind from/ knotsBaromVisibWave heightAir tempDewpointWater temp
2018-Jul-17 09:07N 33°48' E 134°44'312.2
2018-Jul-17 08:50N 33°51' E 134°46'911.5
2018-Jul-17 08:00N 33°59' E 134°52'611.7
2018-Jul-17 07:30N 34°04' E 134°55'612.5
2018-Jul-17 07:00N 34°10' E 134°59'612.3
2018-Jul-17 06:31N 34°15' E 135°02'713.1
2018-Jul-17 06:00N 34°21' E 135°06'612.1
2018-Jul-17 05:31N 34°26' E 135°11'611.4
2018-Jul-17 05:00N 34°29' E 135°17'4 7.7
2018-Jul-17 04:30N 34°28' E 135°21'0 0.0
2018-Jul-17 03:44N 34°28' E 135°21'0 0.0
2018-Jul-17 03:08N 34°28' E 135°21'0 0.0
2018-Jul-17 02:56N 34°28' E 135°21'0 0.0
2018-Jul-17 02:29N 34°28' E 135°21'0 0.0
2018-Jul-17 01:59N 34°28' E 135°21'0 0.1
2018-Jul-17 01:29N 34°28' E 135°21'0 0.1
2018-Jul-17 00:53N 34°28' E 135°21'0 0.0
2018-Jul-17 00:29N 34°28' E 135°21'0 0.0
2018-Jul-16 23:30N 34°28' E 135°21'2 2.0
2018-Jul-16 22:43N 34°29' E 135°20'0 0.0
2018-Jul-16 22:25N 34°29' E 135°20'0 0.0
2018-Jul-16 21:34N 34°29' E 135°20'0 0.0
2018-Jul-16 21:22N 34°29' E 135°20'0 0.0
2018-Jul-16 20:58N 34°29' E 135°20'0 0.0
2018-Jul-16 20:22N 34°29' E 135°20'0 0.0
2018-Jul-16 19:49N 34°29' E 135°20'0 0.0
2018-Jul-16 19:25N 34°29' E 135°20'0 0.0
2018-Jul-16 18:55N 34°29' E 135°20'0 0.0
2018-Jul-16 18:22N 34°29' E 135°20'0 0.0
2018-Jul-16 17:46N 34°29' E 135°20'0 0.1
2018-Jul-16 17:28N 34°29' E 135°20'0 0.1
2018-Jul-16 16:58N 34°29' E 135°20'0 0.0
2018-Jul-16 16:28N 34°29' E 135°20'0 0.0
2018-Jul-16 15:58N 34°29' E 135°20'0 0.0
2018-Jul-16 15:28N 34°29' E 135°20'0 0.0
2018-Jul-16 14:58N 34°29' E 135°20'0 0.0
2018-Jul-16 14:28N 34°29' E 135°20'0 0.0
2018-Jul-16 13:58N 34°29' E 135°20'0 0.0
2018-Jul-16 13:28N 34°29' E 135°20'0 0.0
2018-Jul-16 12:55N 34°29' E 135°20'1 1.5
2018-Jul-16 12:30N 34°29' E 135°19'611.0
2018-Jul-16 12:00N 34°28' E 135°13'611.8
2018-Jul-16 11:30N 34°23' E 135°08'611.7
2018-Jul-16 11:00N 34°18' E 135°04'612.3
2018-Jul-16 10:31N 34°12' E 135°03'611.9
2018-Jul-16 10:00N 34°06' E 135°03'611.7
2018-Jul-16 09:28N 33°60' E 135°02'208 9.4
2018-Jul-15 11:22N 34°48' E 139°08'12 9.4
2018-Jul-15 10:08N 34°55' E 139°18'5 7.8
2018-Jul-15 09:27N 34°58' E 139°24'4 7.6
2018-Jul-15 08:59N 34°60' E 139°28'4 8.8
2018-Jul-15 08:29N 35°02' E 139°32'510.1
2018-Jul-15 08:00N 35°05' E 139°37'511.0
2018-Jul-15 07:30N 35°08' E 139°43'510.5
2018-Jul-15 07:00N 35°12' E 139°46'4 8.9
2018-Jul-15 06:30N 35°17' E 139°45'5 9.6
2018-Jul-15 06:00N 35°21' E 139°42'5 9.9
2018-Jul-15 05:30N 35°26' E 139°43'4 7.5
2018-Jul-15 05:00N 35°30' E 139°43'0 0.1
2018-Jul-15 04:29N 35°30' E 139°43'0 0.0
2018-Jul-15 03:59N 35°30' E 139°43'0 0.0
2018-Jul-15 03:29N 35°30' E 139°43'0 0.0
2018-Jul-15 02:59N 35°30' E 139°43'0 0.0
2018-Jul-15 02:29N 35°30' E 139°43'0 0.0
2018-Jul-15 01:59N 35°30' E 139°43'0 0.0
2018-Jul-15 01:29N 35°30' E 139°43'0 0.0
2018-Jul-15 00:59N 35°30' E 139°43'0 0.0
2018-Jul-15 00:29N 35°30' E 139°43'0 0.0
2018-Jul-14 23:59N 35°30' E 139°43'0 0.0
2018-Jul-14 23:29N 35°30' E 139°43'0 0.2
2018-Jul-14 23:00N 35°30' E 139°43'3 6.8
2018-Jul-14 22:30N 35°26' E 139°42'3 6.2
2018-Jul-14 21:58N 35°29' E 139°39'0 0.0
2018-Jul-14 21:28N 35°29' E 139°39'0 0.0
2018-Jul-14 20:58N 35°29' E 139°39'0 0.0
2018-Jul-14 20:28N 35°29' E 139°39'0 0.0
2018-Jul-14 19:58N 35°29' E 139°39'0 0.0
2018-Jul-14 19:28N 35°29' E 139°39'0 0.0
2018-Jul-14 18:58N 35°29' E 139°39'0 0.0
2018-Jul-14 18:28N 35°29' E 139°39'0 0.0
2018-Jul-14 17:58N 35°29' E 139°39'0 0.0
2018-Jul-14 17:28N 35°29' E 139°39'0 0.0
2018-Jul-14 16:58N 35°29' E 139°39'0 0.0
2018-Jul-14 16:28N 35°29' E 139°39'0 0.0
2018-Jul-14 15:58N 35°29' E 139°39'0 0.0
2018-Jul-14 15:28N 35°29' E 139°39'0 0.0
2018-Jul-14 14:58N 35°29' E 139°39'0 0.0
2018-Jul-14 13:58N 35°29' E 139°39'0 0.0
2018-Jul-14 13:28N 35°29' E 139°39'0 0.0
2018-Jul-14 12:58N 35°29' E 139°39'0 0.0
2018-Jul-14 12:28N 35°29' E 139°39'0 0.0
2018-Jul-14 11:58N 35°29' E 139°39'0 0.0
2018-Jul-14 11:28N 35°29' E 139°39'0 0.0
2018-Jul-14 10:58N 35°29' E 139°39'0 0.0
2018-Jul-14 10:28N 35°29' E 139°39'0 0.0
2018-Jul-14 09:58N 35°29' E 139°39'0 0.0
2018-Jul-14 09:28N 35°29' E 139°39'0 0.0
2018-Jul-14 08:58N 35°29' E 139°39'0 0.0
2018-Jul-14 08:28N 35°29' E 139°39'0 0.0
2018-Jul-14 07:58N 35°29' E 139°39'0 0.0
2018-Jul-14 07:28N 35°29' E 139°39'0 0.2
2018-Jul-14 07:00N 35°29' E 139°39'5 9.6
2018-Jul-14 06:30N 35°27' E 139°45'611.8
2018-Jul-14 06:00N 35°32' E 139°49'4 0.5
2018-Jul-13 21:20N 35°35' E 139°46'0 0.0
2018-Jul-13 21:00N 35°35' E 139°46'4 7.5
2018-Jul-13 20:30N 35°33' E 139°50'2 4.0
2018-Jul-13 19:59N 35°31' E 139°50'0 0.0
2018-Jul-13 19:29N 35°31' E 139°50'0 0.0
2018-Jul-13 18:59N 35°31' E 139°50'0 0.0
2018-Jul-13 18:29N 35°31' E 139°50'0 0.0
2018-Jul-13 12:14N 35°31' E 139°50'0 0.3
2018-Jul-13 12:00N 35°31' E 139°50'5 9.7
2018-Jul-13 11:30N 35°26' E 139°48'510.4
2018-Jul-13 11:00N 35°22' E 139°45'5 9.3
2018-Jul-13 10:30N 35°17' E 139°46'510.2
2018-Jul-13 10:00N 35°12' E 139°47'611.3
2018-Jul-13 09:29N 35°07' E 139°44'611.4
2018-Jul-13 09:00N 35°02' E 139°39'612.1
2018-Jul-13 08:29N 34°58' E 139°34'612.9
2018-Jul-13 08:00N 34°55' E 139°28'234 4.7
2018-Jul-11 06:11N 33°59' E 134°52'311.3
2018-Jul-11 05:53N 34°02' E 134°54'411.5
2018-Jul-11 05:30N 34°06' E 134°56'613.0
2018-Jul-11 05:01N 34°12' E 134°60'612.4
2018-Jul-11 04:30N 34°17' E 135°04'612.1
2018-Jul-11 04:01N 34°22' E 135°07'612.4
2018-Jul-11 03:31N 34°27' E 135°12'611.8
2018-Jul-11 03:00N 34°29' E 135°19'2 0.2
2018-Jul-10 17:06N 34°28' E 135°21'0 0.2
2018-Jul-10 17:00N 34°28' E 135°21'3 7.0
2018-Jul-10 16:30N 34°29' E 135°17'510.5
2018-Jul-10 16:00N 34°26' E 135°11'510.4
2018-Jul-10 15:30N 34°22' E 135°07'510.2
2018-Jul-10 15:00N 34°18' E 135°04'5 9.8
2018-Jul-10 14:30N 34°13' E 135°03'510.5
2018-Jul-10 14:00N 34°08' E 135°03'610.6
2018-Jul-10 13:28N 34°02' E 135°03'208 9.2
2018-Jul-09 14:47N 34°48' E 139°08'410.0
2018-Jul-09 14:26N 34°51' E 139°11'10 8.9
2018-Jul-09 13:18N 34°57' E 139°21'3 7.9
2018-Jul-09 12:56N 34°58' E 139°24'4 8.8
2018-Jul-09 12:27N 35°00' E 139°28'4 9.4
2018-Jul-09 12:00N 35°02' E 139°32'611.1
2018-Jul-09 11:30N 35°05' E 139°38'611.7
2018-Jul-09 11:00N 35°09' E 139°44'510.7
2018-Jul-09 10:30N 35°14' E 139°46'510.8
2018-Jul-09 10:00N 35°19' E 139°43'510.7
2018-Jul-09 09:30N 35°24' E 139°42'5 9.8
2018-Jul-09 09:00N 35°29' E 139°42'1 2.0
2018-Jul-09 08:28N 35°30' E 139°43'0 0.0
2018-Jul-09 07:55N 35°30' E 139°43'0 0.0
2018-Jul-09 07:28N 35°30' E 139°43'0 0.0
2018-Jul-09 06:58N 35°30' E 139°43'0 0.0
2018-Jul-09 06:28N 35°30' E 139°43'0 0.0
2018-Jul-09 05:58N 35°30' E 139°43'0 0.0
2018-Jul-09 05:28N 35°30' E 139°43'0 0.0
2018-Jul-09 04:46N 35°30' E 139°43'0 0.0
2018-Jul-09 04:28N 35°30' E 139°43'0 0.0
2018-Jul-09 03:58N 35°30' E 139°43'2 4.8
2018-Jul-09 03:30N 35°31' E 139°46'4 7.1
2018-Jul-09 03:00N 35°32' E 139°50'3 6.7
2018-Jul-09 02:30N 35°35' E 139°47'1 0.0
2018-Jul-08 01:42N 35°35' E 139°46'0 1.6
2018-Jul-08 01:27N 35°35' E 139°47'4 8.5
2018-Jul-08 01:00N 35°32' E 139°50'611.2
2018-Jul-08 00:30N 35°26' E 139°47'510.9
2018-Jul-08 00:00N 35°21' E 139°45'5 9.9
2018-Jul-07 23:30N 35°16' E 139°46'5 9.9
2018-Jul-07 23:00N 35°11' E 139°46'510.3
2018-Jul-07 22:30N 35°07' E 139°43'510.6
2018-Jul-07 22:00N 35°03' E 139°40'612.1
2018-Jul-07 21:29N 34°58' E 139°34'713.3
2018-Jul-07 20:59N 34°55' E 139°27'  

Dump ship's entire track history